• Join FlightAware (Why Join?)
  • Login
  • US Flag 
02:04AM EDT


 

Airport Tracker/Info


-or-


 

Live Flight TrackerFlight Track Log ✈ SWA1457 ✈ 01-Aug-2013 ✈ KHOU - KSEA

Flight Track Log - Related Links

Times and Time Zones

All times are in EDT time to prevent confusion due to time zone crossing. See the SWA1457 flight status page for this flight to view local times or setup timezone preferences in your user account.

Time Position Orientation Groundspeed Altitude Reporting Facility
EDT Latitude Longitude Course Direction KTS MPH feet Rate Location/Type
03:35PM 29.6306 -95.2608 67° East 166 191 900  Level Houston Center
03:36PM 29.6425 -95.2281 67° East 205 236 2,300 2,040 Climbing Houston Center
03:37PM 29.6842 -95.2392 347° North 222 255 4,000 1,860 Climbing Houston Center
03:38PM 29.7811 -95.2739 343° North 279 321 6,200 1,980 Climbing Houston Center
03:39PM 29.8306 -95.2922 342° North 276 318 8,200 2,340 Climbing Houston Center
03:40PM 29.9067 -95.3194 343° North 283 326 10,700 2,340 Climbing Houston Center
03:41PM 30.0128 -95.3764 335° Northwest 348 400 13,100 2,280 Climbing Houston Center
03:42PM 30.1064 -95.4272 335° Northwest 367 422 15,500 2,220 Climbing Houston Center
03:43PM 30.2047 -95.4783 336° Northwest 381 438 17,700 2,040 Climbing Houston Center
03:44PM 30.3053 -95.5319 335° Northwest 393 452 19,800 1,800 Climbing Houston Center
03:45PM 30.4100 -95.5872 336° Northwest 410 472 21,500 2,400 Climbing Houston Center
03:46PM 30.5356 -95.6542 335° Northwest 417 480 24,800 2,400 Climbing Houston Center
03:47PM 30.6347 -95.7067 336° Northwest 395 455 26,500 1,560 Climbing Houston Center
03:48PM 30.7289 -95.7567 335° Northwest 401 461 28,100 1,380 Climbing Houston Center
03:50PM 30.9114 -95.8492 337° Northwest 401 461 30,100 1,200 Climbing Fort Worth Center
03:50PM 30.9622 -95.8806 332° Northwest 419 482 30,700 1,200 Climbing Houston Center
03:51PM 31.0728 -95.9397 335° Northwest 430 495 32,000 1,140 Climbing Houston Center
03:52PM 31.1864 -95.9931 338° Northwest 436 502 33,100 1,140 Climbing Houston Center
03:53PM 31.3033 -96.0369 342° North 440 506 34,400 1,260 Climbing Houston Center
03:54PM 31.4189 -96.0808 342° North 435 501 35,800 720 Climbing Houston Center
03:55PM 31.5511 -96.1325 342° North 429 494 35,900  Climbing Houston Center
03:56PM 31.6653 -96.1767 342° North 428 493 35,900  Level Houston Center
03:57PM 31.7747 -96.2328 336° Northwest 429 494 35,900  Level Houston Center
03:58PM 31.8592 -96.3317 315° West 431 496 35,900  Level Houston Center
03:59PM 31.9442 -96.4300 316° Northwest 426 490 35,900  Level Houston Center
04:01PM 32.0300 -96.5311 315° West 432 497 35,900  Level Houston Center
04:02PM 32.1286 -96.6489 315° West 431 496 35,900  Level Houston Center
04:03PM 32.2147 -96.7503 315° West 433 498 35,900  Level Houston Center
04:04PM 32.3019 -96.8628 313° West 427 491 36,000  Climbing Fort Worth Center
04:05PM 32.3858 -96.9631 315° West 427 491 35,900 -60 Descending Fort Worth Center
04:06PM 32.4697 -97.0636 315° West 422 486 35,900  Level Fort Worth Center
04:08PM 32.6369 -97.2678 314° West 422 486 35,900  Level Fort Worth Center
04:09PM 32.7206 -97.3739 313° West 422 486 35,900  Level Fort Worth Center
04:10PM 32.8042 -97.4753 314° West 422 486 35,900  Level Fort Worth Center
04:11PM 32.8897 -97.5767 315° West 422 486 35,900  Level Fort Worth Center
04:12PM 32.9625 -97.6636 315° West 422 486 35,900  Level Fort Worth Center
04:13PM 33.0478 -97.7653 315° West 422 486 35,900  Level Fort Worth Center
04:14PM 33.1311 -97.8675 314° West 422 486 35,900  Level Fort Worth Center
04:15PM 33.2119 -97.9697 313° West 422 486 36,000  Climbing Fort Worth Center
04:16PM 33.2931 -98.0694 314° West 422 486 35,900  Descending Fort Worth Center
04:17PM 33.3758 -98.1722 314° West 422 486 36,000  Climbing Fort Worth Center
04:18PM 33.4650 -98.2825 314° West 422 486 35,900 -60 Descending Fort Worth Center
04:19PM 33.5456 -98.3856 313° West 422 486 35,900  Level Fort Worth Center
04:20PM 33.6242 -98.4811 315° West 428 493 35,900  Level Fort Worth Center
04:21PM 33.7044 -98.5844 313° West 428 493 35,900  Level Fort Worth Center
04:22PM 33.7869 -98.6856 314° West 428 493 35,900  Level Fort Worth Center
04:23PM 33.8756 -98.7969 314° West 423 487 35,900  Level Fort Worth Center
04:24PM 33.9558 -98.9008 313° West 418 481 35,900  Level Fort Worth Center
04:25PM 34.0358 -99.0000 314° West 418 481 36,000  Climbing Fort Worth Center
04:26PM 34.1078 -99.0992 311° West 428 493 35,900 -60 Descending Fort Worth Center
04:27PM 34.1981 -99.2089 315° West 423 487 35,900  Level Fort Worth Center
04:28PM 34.2758 -99.3061 314° West 418 481 35,900  Level Fort Worth Center
04:29PM 34.3578 -99.4108 313° West 418 481 35,900  Level Fort Worth Center
04:30PM 34.4353 -99.5133 313° West 418 481 36,000  Climbing Fort Worth Center
04:31PM 34.5067 -99.6033 314° West 418 481 35,900 -60 Descending Fort Worth Center
04:32PM 34.5842 -99.7064 312° West 418 481 35,900  Level Fort Worth Center
04:34PM 34.7569 -99.9308 313° West 420 483 36,000  Climbing Albuquerque Center
04:35PM 34.8364 -100.0347 313° West 419 482 35,900 -60 Descending Albuquerque Center
04:36PM 34.9325 -100.1619 313° West 421 484 35,900  Level Albuquerque Center
04:37PM 35.0125 -100.2672 313° West 421 484 35,900  Level Albuquerque Center
04:38PM 35.0897 -100.3694 313° West 421 484 36,000  Climbing Albuquerque Center
04:39PM 35.1681 -100.4731 313° West 418 481 36,000 480 Level Albuquerque Center
04:40PM 35.2517 -100.5842 313° West 423 487 37,100 900 Climbing Albuquerque Center
04:41PM 35.3419 -100.7039 313° West 421 484 37,900 360 Climbing Albuquerque Center
04:42PM 35.4194 -100.8092 312° West 419 482 37,900  Level Albuquerque Center
04:43PM 35.4975 -100.9125 313° West 417 480 38,000  Climbing Albuquerque Center
04:44PM 35.5747 -101.0181 312° West 417 480 38,000  Level Albuquerque Center
04:45PM 35.6525 -101.1233 312° West 418 481 38,000  Level Albuquerque Center
04:46PM 35.7306 -101.2294 312° West 421 484 38,000  Level Albuquerque Center
04:47PM 35.8250 -101.3578 312° West 423 487 38,000  Level Albuquerque Center
04:48PM 35.9019 -101.4642 312° West 421 484 38,000  Level Albuquerque Center
04:49PM 35.9797 -101.5703 312° West 419 482 38,000  Level Albuquerque Center
04:50PM 36.0581 -101.6775 312° West 421 484 38,000  Level Albuquerque Center
04:51PM 36.1344 -101.7858 311° West 421 484 38,000  Level Albuquerque Center
04:52PM 36.2117 -101.8917 312° West 418 481 38,000  Level Albuquerque Center
04:53PM 36.3036 -102.0206 312° West 417 480 38,000  Level Albuquerque Center
04:54PM 36.3803 -102.1269 312° West 416 479 38,000  Level Albuquerque Center
04:56PM 36.4575 -102.2342 312° West 417 480 38,000  Level Albuquerque Center
04:57PM 36.5336 -102.3419 311° West 416 479 38,000  Level Albuquerque Center
04:58PM 36.6125 -102.4469 313° West 416 479 38,000  Level Albuquerque Center
04:59PM 36.7183 -102.5497 322° Northwest 416 479 38,000  Level Albuquerque Center
05:00PM 36.8050 -102.6378 321° Northwest 420 483 38,000  Level Albuquerque Center
05:01PM 36.9056 -102.7378 322° Northwest 415 478 38,000  Level Albuquerque Center
05:02PM 36.9917 -102.8219 322° Northwest 412 474 38,000  Level Albuquerque Center
05:03PM 37.0903 -102.9208 321° Northwest 410 472 38,000  Level Albuquerque Center
05:04PM 37.1761 -103.0064 322° Northwest 411 473 38,000  Level Albuquerque Center
05:05PM 37.2597 -103.0947 320° Northwest 412 474 38,000  Level Albuquerque Center
05:06PM 37.3200 -103.2333 299° West 407 468 38,000  Level Albuquerque Center
05:07PM 37.3717 -103.3517 299° West 404 465 38,000 -60 Level Albuquerque Center
05:08PM 37.4150 -103.4981 290° West 402 463 37,900  Descending Denver Center
05:09PM 37.4525 -103.6222 291° West 399 459 38,000  Climbing Denver Center
05:10PM 37.4969 -103.7694 291° West 402 463 38,000 -60 Level Denver Center
05:11PM 37.5364 -103.8928 292° West 400 460 37,900  Descending Denver Center
05:12PM 37.5781 -104.0408 290° West 421 484 38,000  Climbing Denver Center
05:13PM 37.6161 -104.1719 290° West 422 486 38,000 -60 Level Denver Center
05:14PM 37.6750 -104.3147 298° West 420 483 37,900  Descending Denver Center
05:15PM 37.7481 -104.4219 311° West 422 486 38,000  Climbing Denver Center
05:16PM 37.8325 -104.5483 310° West 422 486 38,000 -60 Level Denver Center
05:17PM 37.9092 -104.6536 313° West 423 487 37,900  Descending Denver Center
05:18PM 37.9950 -104.7794 311° West 423 487 38,000  Climbing Denver Center
05:19PM 38.0661 -104.8869 310° West 416 479 38,000  Level Denver Center
05:20PM 38.1511 -105.0125 311° West 418 481 38,000  Level Denver Center
05:21PM 38.2231 -105.1197 311° West 417 480 38,000  Level Denver Center
05:22PM 38.3075 -105.2442 311° West 416 479 38,000  Level Denver Center
05:23PM 38.3850 -105.3594 311° West 415 478 38,000  Level Denver Center
05:24PM 38.4592 -105.4714 310° West 413 475 38,000  Level Denver Center
05:25PM 38.5339 -105.5839 310° West 413 475 38,000  Level Denver Center
05:26PM 38.6081 -105.6953 310° West 412 474 38,000  Level Denver Center
05:28PM 38.6800 -105.8061 310° West 406 467 38,000  Level Denver Center
05:29PM 38.7533 -105.9164 310° West 405 466 38,000  Level Denver Center
05:30PM 38.8403 -106.0497 310° West 406 467 38,000  Level Denver Center
05:31PM 38.9167 -106.1681 310° West 412 474 38,000  Level Denver Center
05:32PM 38.9881 -106.2750 311° West 413 475 38,000  Level Denver Center
05:33PM 39.0678 -106.4003 309° West 407 468 38,000  Level Denver Center
05:34PM 39.1361 -106.5069 310° West 405 466 38,000  Level Denver Center
05:35PM 39.2056 -106.6125 310° West 403 464 38,000  Level Denver Center
05:36PM 39.2847 -106.7392 309° West 405 466 38,000  Level Denver Center
05:37PM 39.3528 -106.8467 309° West 405 466 38,000  Level Denver Center
05:38PM 39.4306 -106.9736 308° West 404 465 38,000  Level Denver Center
05:39PM 39.4992 -107.0822 309° West 406 467 38,000  Level Denver Center
05:40PM 39.5817 -107.2100 310° West 412 474 38,000  Level Denver Center
05:42PM 39.7306 -107.4447 310° West 406 467 38,000  Level Denver Center
05:43PM 39.7994 -107.5550 309° West 407 468 38,000  Level Denver Center
05:44PM 39.8786 -107.6836 309° West 409 471 38,000  Level Denver Center
05:45PM 39.9461 -107.7928 309° West 405 466 38,000  Level Denver Center
05:47PM 40.0519 -108.0597 297° West 403 464 38,000  Level Denver Center
05:48PM 40.1089 -108.2031 297° West 400 460 38,000  Level Denver Center
05:49PM 40.1711 -108.3206 305° West 411 473 38,000  Level Denver Center
05:50PM 40.2528 -108.4519 309° West 418 481 38,000  Level Denver Center
05:51PM 40.3217 -108.5642 309° West 416 479 38,000  Level Denver Center
05:52PM 40.4011 -108.6936 309° West 411 473 38,000  Level Denver Center
05:53PM 40.4783 -108.8244 308° West 409 471 38,000  Level Salt Lake Center
05:55PM 40.5467 -108.9344 309° West 408 470 38,000  Level Salt Lake Center
05:56PM 40.6244 -109.0650 308° West 403 464 38,000 -60 Level Salt Lake Center
05:57PM 40.7078 -109.1611 319° Northwest 416 479 37,900  Descending Salt Lake Center
05:58PM 40.8161 -109.2597 325° Northwest 428 493 38,000  Climbing Salt Lake Center
05:59PM 40.9219 -109.3322 333° Northwest 437 503 38,000  Level Salt Lake Center
06:00PM 41.0169 -109.4517 317° Northwest 423 487 38,000  Level Salt Lake Center
06:01PM 41.0850 -109.5703 307° West 421 484 38,000  Level Salt Lake Center
06:02PM 41.1522 -109.6906 307° West 422 486 38,000  Level Salt Lake Center
06:03PM 41.2322 -109.8300 307° West 422 486 38,000  Level Salt Lake Center
06:04PM 41.3011 -109.9503 307° West 426 490 38,000  Level Salt Lake Center
06:05PM 41.3808 -110.0911 307° West 427 491 38,000  Level Salt Lake Center
06:06PM 41.4483 -110.2114 307° West 424 488 38,000  Level Salt Lake Center
06:07PM 41.5269 -110.3522 307° West 423 487 38,000  Level Salt Lake Center
06:08PM 41.5944 -110.4733 307° West 424 488 38,000  Level Salt Lake Center
06:09PM 41.6731 -110.6139 307° West 424 488 38,000  Level Salt Lake Center
06:10PM 41.7392 -110.7333 307° West 418 481 38,000  Level Salt Lake Center
06:11PM 41.8164 -110.8717 307° West 416 479 38,000  Level Salt Lake Center
06:12PM 41.8853 -110.9975 306° West 415 478 38,000  Level Salt Lake Center
06:13PM 41.9528 -111.1214 306° West 413 475 38,000  Level Salt Lake Center
06:14PM 42.0200 -111.2453 306° West 413 475 38,000  Level Salt Lake Center
06:15PM 42.0881 -111.3700 306° West 416 479 38,000  Level Salt Lake Center
06:16PM 42.1542 -111.4942 306° West 411 473 38,000  Level Salt Lake Center
06:17PM 42.2358 -111.6442 306° West 415 478 38,000  Level Salt Lake Center
06:18PM 42.3031 -111.7708 306° West 417 480 38,000  Level Salt Lake Center
06:19PM 42.3703 -111.8983 306° West 417 480 38,000  Level Salt Lake Center
06:20PM 42.4378 -112.0233 306° West 414 476 38,000  Level Salt Lake Center
06:21PM 42.5042 -112.1494 306° West 413 475 38,000  Level Salt Lake Center
06:22PM 42.5833 -112.3000 306° West 412 474 38,000 -60 Level Salt Lake Center
06:23PM 42.6497 -112.4278 305° West 415 478 37,900  Descending Salt Lake Center
06:25PM 42.7156 -112.5506 306° West 413 475 38,000  Climbing Salt Lake Center
06:26PM 42.7872 -112.6878 305° West 403 464 38,000  Level Salt Lake Center
06:27PM 42.8486 -112.8072 305° West 400 460 38,000  Level Salt Lake Center
06:28PM 42.9231 -112.9514 305° West 412 474 38,000  Level Salt Lake Center
06:29PM 42.9864 -113.0767 305° West 415 478 38,000  Level Salt Lake Center
06:30PM 43.0497 -113.1994 305° West 415 478 38,000  Level Salt Lake Center
06:31PM 43.1233 -113.3461 305° West 418 481 38,000  Level Salt Lake Center
06:32PM 43.1867 -113.4703 305° West 415 478 38,000  Level Salt Lake Center
06:33PM 43.2592 -113.6167 304° West 415 478 38,000  Level Salt Lake Center
06:34PM 43.3211 -113.7403 305° West 412 474 38,000  Level Salt Lake Center
06:35PM 43.3928 -113.8853 304° West 413 475 38,000  Level Salt Lake Center
06:36PM 43.4544 -114.0106 304° West 411 473 38,000  Level Salt Lake Center
06:37PM 43.5261 -114.1550 304° West 407 468 38,000  Level Salt Lake Center
06:38PM 43.5878 -114.2806 304° West 410 472 38,000  Level Salt Lake Center
06:39PM 43.6597 -114.4261 304° West 412 474 38,000  Level Salt Lake Center
06:40PM 43.7211 -114.5550 303° West 419 482 38,000  Level Salt Lake Center
06:41PM 43.7939 -114.7039 304° West 418 481 38,000  Level Salt Lake Center
06:42PM 43.8564 -114.8325 304° West 421 484 38,000 -60 Level Salt Lake Center
06:43PM 43.9289 -114.9842 304° West 423 487 37,900  Descending Salt Lake Center
06:44PM 43.9908 -115.1147 303° West 423 487 38,000  Climbing Salt Lake Center
06:45PM 44.0636 -115.2661 304° West 423 487 38,000  Level Salt Lake Center
06:46PM 44.1239 -115.3958 303° West 419 482 38,000  Level Salt Lake Center
06:47PM 44.1750 -115.5333 297° West 418 481 38,000  Level Salt Lake Center
06:48PM 44.2336 -115.6936 297° West 417 480 38,000  Level Salt Lake Center
06:49PM 44.2828 -115.8325 296° West 416 479 38,000  Level Salt Lake Center
06:50PM 44.3400 -115.9964 296° West 420 483 38,000  Level Salt Lake Center
06:51PM 44.3892 -116.1414 295° West 421 484 38,000 -60 Level Salt Lake Center
06:52PM 44.4378 -116.2922 294° West 434 499 37,900  Descending Salt Lake Center
06:53PM 44.4950 -116.4556 296° West 420 483 38,000  Climbing Salt Lake Center
06:55PM 44.5397 -116.5969 294° West 416 479 38,000 -60 Level Salt Lake Center
06:56PM 44.5850 -116.7667 291° West 417 480 37,900  Descending Salt Lake Center
06:57PM 44.6228 -116.9114 290° West 414 476 38,000  Climbing Salt Lake Center
06:58PM 44.6819 -117.0797 296° West 435 501 38,000 -60 Level Salt Lake Center
06:59PM 44.7572 -117.2094 309° West 448 516 37,900  Descending Salt Lake Center
07:00PM 44.8422 -117.3614 308° West 443 510 38,000  Climbing Salt Lake Center
07:01PM 44.9156 -117.4936 308° West 447 514 38,000  Level Salt Lake Center
07:02PM 45.0008 -117.6472 308° West 445 512 38,000  Level Salt Lake Center
07:03PM 45.0744 -117.7789 308° West 445 512 38,000  Level Salt Lake Center
07:04PM 45.1569 -117.9353 307° West 444 511 38,000  Level Salt Lake Center
07:05PM 45.2222 -118.0500 309° West 444 511 38,000 -60 Level Salt Lake Center
07:06PM 45.3111 -118.2169 307° West 443 510 37,900  Descending Salt Lake Center
07:07PM 45.3867 -118.3547 308° West 444 511 38,000  Climbing Salt Lake Center
07:08PM 45.4619 -118.4942 308° West 446 513 37,900  Descending Salt Lake Center
07:09PM 45.5356 -118.6331 307° West 443 510 38,000  Climbing Salt Lake Center
07:10PM 45.6100 -118.7736 307° West 446 513 37,900 -60 Descending Salt Lake Center
07:11PM 45.6847 -118.9131 308° West 445 512 37,900  Level Salt Lake Center
07:12PM 45.7789 -119.0767 310° West 446 513 37,900  Level Salt Lake Center
07:13PM 45.8742 -119.2389 310° West 449 517 37,900  Level Seattle Center
07:14PM 45.9542 -119.3736 311° West 447 514 37,900  Level Seattle Center
07:15PM 46.0350 -119.5139 310° West 456 525 37,900  Level Seattle Center
07:16PM 46.1139 -119.6497 310° West 450 518 37,900  Level Seattle Center
07:17PM 46.1939 -119.7869 310° West 447 514 38,000  Climbing Seattle Center
07:18PM 46.2739 -119.9233 310° West 448 516 37,900 -60 Descending Seattle Center
07:19PM 46.3531 -120.0633 309° West 451 519 37,900  Level Seattle Center
07:20PM 46.4322 -120.2028 310° West 450 518 37,900  Level Seattle Center
07:21PM 46.5269 -120.3686 310° West 448 516 37,900 -1,080 Level Seattle Center
07:22PM 46.6003 -120.5086 307° West 439 505 35,800 -2,460 Descending Seattle Center
07:23PM 46.6686 -120.6544 304° West 438 504 32,900 -2,760 Descending Seattle Center
07:24PM 46.7406 -120.8039 305° West 450 518 30,300 -2,460 Descending Seattle Center
07:26PM 46.8097 -120.9514 304° West 444 511 28,000 -2,220 Descending Seattle Center
07:27PM 46.8756 -121.0950 304° West 430 495 25,800 -2,160 Descending Seattle Center
07:28PM 46.9408 -121.2336 305° West 417 480 23,600 -2,100 Descending Seattle Center
07:29PM 47.0039 -121.3661 305° West 405 466 21,500 -2,100 Descending Seattle Center
07:30PM 47.0806 -121.5331 304° West 384 442 19,200 -1,920 Descending Seattle Center
07:31PM 47.1314 -121.6436 304° West 373 429 17,700 -1,920 Descending Seattle Center
07:32PM 47.1881 -121.7644 305° West 361 415 15,600 -1,740 Descending Seattle Center
07:33PM 47.2447 -121.8889 304° West 341 392 14,100 -1,920 Descending Seattle Center
07:34PM 47.2878 -121.9861 303° West 329 379 12,000 -2,160 Descending Seattle Center
07:35PM 47.3389 -122.0983 304° West 335 386 10,200 -1,380 Descending Seattle Center
07:36PM 47.3925 -122.1864 312° West 291 335 9,300 -1,260 Descending Seattle Center
07:37PM 47.4775 -122.1886 359° North 273 314 7,700 -1,380 Descending Seattle Center
07:38PM 47.5514 -122.1903 359° North 269 310 6,600 -840 Descending Seattle Center
07:39PM 47.6200 -122.1883 North 240 276 6,000 -600 Descending Seattle Center
07:40PM 47.6833 -122.1928 357° North 225 259 5,400 -600 Descending Seattle Center
07:41PM 47.7169 -122.2728 302° West 222 255 4,900 -300 Descending Seattle Center
07:42PM 47.6753 -122.3189 217° Southwest 229 264 4,900 -600 Level Seattle Center
07:43PM 47.6106 -122.3186 180° South 222 255 3,700 -1,200 Descending Seattle Center
07:44PM 47.5592 -122.3175 179° South 191 220 2,500 -1,140 Descending Seattle Center
07:45PM 47.5131 -122.3197 182° South 148 170 1,400 -900 Descending Seattle Center
07:46PM 47.4719 -122.3181 178° South 130 150 600 -480 Descending Seattle Center
07:47PM 47.4425 -122.3181 180° South 129 148 400 -240 Descending Seattle Center